Sign-in with your pilot id or email, or register

Flight FEV813

  • Submitted By: Thomas Schedl
  • Departure Airport: Schwechat (LOWW)
  • Arrival Airport: Hamburg (EDDH)
  • Aircraft: A318-100 (OE-CGA)
  • Flight Time: 1.21
  • Date Submitted: 14/08/2019
  • Route: LANUX VLM Z401 RAK BESIP TADUV T804 MAG BUREL DIRBO
  • Status: Accepted
Flight Details
Gross Revenue:
(90 load / € 207.00 per unit
€ 18, 630.00
Fuel Cost:
(6223 fuel used @ 0.8358 / unit)
€ 5, 201.18

Additional Log Information:

View Log

[2019/08/14 17:02:00]
Flight IATA:FEV813
Pilot Number:ORB0001
Company ICAO:ORB
Aircraft Type:A318-100
PAX:90
Aircraft Registration:OE-CGA
Departing Airport: LOWW
Destination Airport: EDDH
Alternate Airport:EDDW
Online: No
Route:LANUX VLM Z401 RAK BESIP TADUV T804 MAG BUREL DIRBO
Flight Level:35000
17:02 Zero fuel Weight: 106063 Lbs, Fuel Weight: 15996 Lbs
17:02 VATSIM:LOWW 141650Z 33007KT CAVOK 22/08 Q1017 NOSIG
17:02 VATSIM:EDDH 141650Z 28004KT 190V330 CAVOK 20/08 Q1015 NOSIG
17:06 Parking Brakes off
17:06 Com1 Freq=121.60
17:10 Com1 Freq=119.40
17:12 VR= 135 Knots
17:12 V2= 138 Knots
17:12 Take-off
17:12 Take off Weight: 121487 Lbs
17:12 Wind: 333? @ 007 Knots Heading: 344?
17:12 POS N48? 05? 58?? E016? 35? 12??
17:12 N11 81 N12 81
17:12 Flaps:2 at 138 Knots
17:12 Gear Up: 139 Knots
17:12 Flaps:0 at 139 Knots
17:12 Com1 Freq=126.90
17:21 Com1 Freq=124.40
17:24 Com1 Freq=127.90
17:27 Wind:206?@071 Knots Heading: 331? Ground Speed: 518 Knots Altitude 28769 ft
17:31 TOC
17:31 Fuel Weight: 12884 Lb
17:42 Wind:242?@048 Knots Heading: 347? Ground Speed: 475 Knots Altitude 35000 ft
17:49 TOD
17:49 Fuel Weight: 11710 Lb
17:52 Com1 Freq=123.22
17:57 Wind:286?@027 Knots Heading: 317? Ground Speed: 373 Knots Altitude 22936 ft
18:07 Com1 Freq=118.20
18:12 Wind:269?@018 Knots Heading: 335? Ground Speed: 325 Knots Altitude 11177 ft
18:18 Flaps:1 at 250 Knots
18:23 Com1 Freq=121.27
18:24 Gear Down: 179 Knots
18:24 Flaps:3 at 176 Knots
18:26 TouchDown:Rate -412 ft/min Speed: 176 Knots
18:26 VATSIM:EDDH 141750Z 35004KT CAVOK 19/09 Q1015 BECMG 18003KT
18:26 Land
18:26 Wind:352?@004 Knots
18:26 Heading: 332?
18:26 Flight Duration: 01:14
18:26 Landing Weight: 115884 Lbs
18:26 POS N53? 38? 38?? E009? 59? 04??
18:26 Com1 Freq=121.80
18:27 Parking brakes on
18:27 Block to Block Duration: 01:21
18:27 Final Fuel: 9772 Lbls
18:27 Spent Fuel: 6223 Lbls
18:27 Flight Length: 444 NM
18:27 TOD Land Length: 188 NM

Route Map